Jonathan, Idaho
Current Conditions -  °F | °C
As of 10:53 PM on Sunday 25 Jan 2015 (Local Time) from KONO Reporting Station
Overcast Overcast  
Wind Chill: 35°   Ceiling: 1200
Heat Index: 35°   Visibility: 7mi
Dew Point: 31°   Wind: 0mph
Humidity: 85%   Direction: NA
Pressure: 30.46"   Gusts: NA
Location:  44.398°N, 116.943°W
Report Text: KONO 260553Z AUTO 00000KT 7SM OVC012 02/M01 A3046 RMK AO2 SLP336 T00171006 10039 20006 51004
Loading
Personal Weather Stations






























Interactive Weather Map New forecast layout! Learn more

10-Day Weather Forecast

Advertisements
Track Severe Weather on mobile